Concordia, Missouri
Current Conditions -  °F | °C
As of 2:58 PM on Saturday 22 Nov 2014 (Local Time) from KSZL Reporting Station
Broken Clouds Broken Clouds  
Wind Chill: 60°   Ceiling: 2300
Heat Index: 60°   Visibility: 10mi
Dew Point: 52°   Wind: 22mph
Humidity: 74%   Direction: 210°SSW
Pressure: 29.85"   Gusts: 29mph
Location:  38.98°N, 93.57°W
Report Text: KSZL 222058Z AUTO 21019G25KT 10SM BKN023 16/11 A2985 RMK AO2 SLP110 T01560109 21027 56023 $
Loading
Personal Weather Stations






























Interactive Weather Map New forecast layout! Learn more

10-Day Weather Forecast

Advertisements
Track Severe Weather on mobile